createdAt,value
2018-09-15T00:01:57.333Z,14.30
2018-09-15T00:04:28.011Z,14.30
2018-09-15T00:06:58.510Z,14.30
2018-09-15T00:09:35.371Z,14.40
2018-09-15T00:12:07.700Z,14.30
2018-09-15T00:14:38.724Z,14.30
2018-09-15T00:17:09.508Z,14.30
2018-09-15T00:19:40.366Z,14.40
2018-09-15T00:22:11.066Z,14.40
2018-09-15T00:24:44.456Z,14.40
2018-09-15T00:27:14.985Z,14.50
2018-09-15T00:29:44.863Z,14.50
2018-09-15T00:32:18.625Z,14.60
2018-09-15T00:34:55.885Z,14.60
2018-09-15T00:37:26.714Z,14.70
2018-09-15T00:39:57.658Z,14.70
2018-09-15T00:42:28.006Z,14.70
2018-09-15T00:44:57.744Z,14.70
2018-09-15T00:47:27.476Z,14.80
2018-09-15T00:49:58.491Z,14.80
2018-09-15T00:52:29.920Z,14.80
2018-09-15T00:55:00.845Z,14.90
2018-09-15T00:57:31.428Z,14.90
2018-09-15T01:00:01.177Z,14.90
2018-09-15T01:02:33.795Z,14.90
2018-09-15T01:05:05.220Z,15.00
2018-09-15T01:07:37.728Z,15.00
2018-09-15T01:10:08.593Z,15.10
2018-09-15T01:12:39.188Z,15.00
2018-09-15T01:15:10.476Z,14.90
2018-09-15T01:17:40.915Z,14.90
2018-09-15T01:20:12.572Z,14.90
2018-09-15T01:22:50.569Z,14.90
2018-09-15T01:25:20.943Z,15.10
2018-09-15T01:27:50.847Z,15.00
2018-09-15T01:30:21.747Z,15.00
2018-09-15T01:32:51.879Z,15.10
2018-09-15T01:35:22.125Z,15.10
2018-09-15T01:37:53.211Z,15.20
2018-09-15T01:40:28.408Z,15.20
2018-09-15T01:42:57.994Z,15.20
2018-09-15T01:45:27.472Z,15.30
2018-09-15T01:47:57.948Z,15.30
2018-09-15T01:50:28.884Z,15.20
2018-09-15T01:52:59.444Z,15.20
2018-09-15T01:55:29.899Z,15.30
2018-09-15T01:58:02.563Z,15.30
2018-09-15T02:00:32.011Z,15.30
2018-09-15T02:03:05.377Z,15.20
2018-09-15T02:05:35.729Z,15.20
2018-09-15T02:11:11.458Z,15.20
2018-09-15T02:13:43.620Z,15.20
2018-09-15T02:16:16.292Z,15.20
2018-09-15T02:18:55.036Z,15.20
2018-09-15T02:21:25.294Z,15.20
2018-09-15T02:23:55.970Z,15.20
2018-09-15T02:26:25.899Z,15.20
2018-09-15T02:28:55.566Z,15.20
2018-09-15T02:31:27.532Z,15.20
2018-09-15T02:33:59.641Z,15.10
2018-09-15T02:36:32.732Z,15.10
2018-09-15T02:39:02.379Z,15.10
2018-09-15T02:41:35.152Z,15.20
2018-09-15T02:44:05.586Z,15.20
2018-09-15T02:46:36.434Z,15.20
2018-09-15T02:49:10.469Z,15.20
2018-09-15T02:51:43.147Z,15.20
2018-09-15T02:54:15.419Z,15.20
2018-09-15T02:56:46.096Z,15.20
2018-09-15T02:59:16.257Z,15.20
2018-09-15T03:15:48.618Z,15.20
2018-09-15T03:18:18.050Z,15.10
2018-09-15T03:20:47.524Z,15.10
2018-09-15T03:23:17.978Z,15.10
2018-09-15T03:25:52.321Z,15.10
2018-09-15T03:28:22.871Z,15.10
2018-09-15T03:30:52.763Z,15.10
2018-09-15T03:33:23.195Z,15.10
2018-09-15T03:35:54.749Z,15.00
2018-09-15T03:38:24.205Z,15.00
2018-09-15T03:41:09.514Z,14.90
2018-09-15T03:43:41.442Z,14.80
2018-09-15T03:46:11.262Z,14.80
2018-09-15T03:55:19.356Z,14.80
2018-09-15T03:57:49.412Z,14.90
2018-09-15T04:00:19.934Z,14.90
2018-09-15T04:02:51.340Z,14.80
2018-09-15T04:05:26.174Z,14.70
2018-09-15T04:07:56.680Z,14.60
2018-09-15T04:10:27.620Z,14.50
2018-09-15T04:12:57.294Z,14.50
2018-09-15T04:15:27.468Z,14.40
2018-09-15T04:17:57.634Z,14.40
2018-09-15T04:20:27.724Z,14.40
2018-09-15T04:23:01.301Z,14.30
2018-09-15T04:25:30.943Z,14.30
2018-09-15T04:28:01.041Z,14.20
2018-09-15T04:30:31.817Z,14.20
2018-09-15T04:33:03.459Z,14.20
2018-09-15T04:35:33.377Z,14.20
2018-09-15T04:38:06.145Z,14.20
2018-09-15T04:40:35.733Z,14.30
2018-09-15T04:43:06.535Z,14.30
2018-09-15T04:45:35.867Z,14.30
2018-09-15T04:48:05.608Z,14.30
2018-09-15T04:50:36.175Z,14.30
2018-09-15T04:53:06.248Z,14.20
2018-09-15T04:55:34.953Z,14.20
2018-09-15T04:58:06.504Z,14.20
2018-09-15T05:00:35.329Z,14.20
2018-09-15T05:03:04.014Z,14.20
2018-09-15T05:05:32.649Z,14.20
2018-09-15T05:08:01.260Z,14.20
2018-09-15T05:10:30.048Z,14.20
2018-09-15T05:12:58.813Z,14.20
2018-09-15T05:15:27.406Z,14.20
2018-09-15T05:17:55.994Z,14.20
2018-09-15T05:20:24.586Z,14.20
2018-09-15T05:22:53.323Z,14.10
2018-09-15T05:25:21.919Z,14.10
2018-09-15T05:27:50.775Z,14.10
2018-09-15T05:30:26.892Z,14.10
2018-09-15T05:33:00.255Z,14.20
2018-09-15T05:35:37.593Z,14.20
2018-09-15T05:38:06.577Z,14.20
2018-09-15T05:40:36.433Z,14.20
2018-09-15T05:43:05.388Z,14.20
2018-09-15T05:45:35.067Z,14.20
2018-09-15T05:48:03.956Z,14.40
2018-09-15T05:50:32.852Z,14.40
2018-09-15T05:53:02.510Z,14.30
2018-09-15T05:55:32.122Z,14.40
2018-09-15T05:58:00.968Z,14.40
2018-09-15T06:00:30.032Z,14.30
2018-09-15T06:02:58.898Z,14.30
2018-09-15T06:05:28.321Z,14.30
2018-09-15T06:07:58.333Z,14.20
2018-09-15T06:10:27.004Z,14.20
2018-09-15T06:12:59.056Z,14.20
2018-09-15T06:15:27.939Z,14.20
2018-09-15T06:18:00.924Z,14.20
2018-09-15T06:20:29.908Z,14.20
2018-09-15T06:22:58.637Z,14.30
2018-09-15T06:25:28.907Z,14.20
2018-09-15T06:27:58.527Z,14.20
2018-09-15T06:30:27.357Z,14.20
2018-09-15T06:32:58.349Z,14.30
2018-09-15T06:35:27.899Z,14.30
2018-09-15T06:37:56.579Z,14.40
2018-09-15T06:40:25.488Z,14.50
2018-09-15T06:42:54.201Z,14.60
2018-09-15T06:45:22.909Z,14.70
2018-09-15T06:47:56.209Z,14.70
2018-09-15T06:50:25.146Z,14.80
2018-09-15T06:52:53.761Z,14.80
2018-09-15T06:55:22.528Z,14.90
2018-09-15T06:57:54.858Z,14.90
2018-09-15T07:00:23.598Z,15.00
2018-09-15T07:02:59.779Z,15.10
2018-09-15T07:05:29.211Z,15.20
2018-09-15T07:07:58.474Z,15.20
2018-09-15T07:10:27.230Z,15.20
2018-09-15T07:12:56.092Z,15.20
2018-09-15T07:15:25.144Z,15.20
2018-09-15T07:17:53.983Z,15.30
2018-09-15T07:20:22.852Z,15.30
2018-09-15T07:22:51.821Z,15.40
2018-09-15T07:25:21.228Z,15.50
2018-09-15T07:27:50.915Z,15.60
2018-09-15T07:30:20.409Z,15.80
2018-09-15T07:32:49.852Z,15.80
2018-09-15T07:35:18.769Z,15.80
2018-09-15T07:37:47.694Z,15.80
2018-09-15T07:40:21.264Z,15.90
2018-09-15T07:42:54.988Z,15.90
2018-09-15T07:45:24.313Z,16.00
2018-09-15T07:47:53.917Z,16.10
2018-09-15T07:50:23.070Z,16.20
2018-09-15T07:52:51.931Z,16.30
2018-09-15T07:55:20.651Z,16.40
2018-09-15T07:57:49.376Z,16.30
2018-09-15T08:00:18.086Z,16.20
2018-09-15T08:02:46.726Z,16.30
2018-09-15T08:05:15.416Z,16.40
2018-09-15T08:07:44.200Z,16.50
2018-09-15T08:10:12.974Z,16.70
2018-09-15T08:12:42.545Z,16.80
2018-09-15T08:15:11.966Z,17.00
2018-09-15T08:17:41.335Z,17.10
2018-09-15T08:20:10.145Z,17.10
2018-09-15T08:22:38.863Z,17.20
2018-09-15T08:25:10.904Z,17.30
2018-09-15T08:27:39.768Z,17.30
2018-09-15T08:30:09.443Z,17.30
2018-09-15T08:32:38.348Z,17.40
2018-09-15T08:35:09.525Z,17.30
2018-09-15T08:37:38.525Z,17.50
2018-09-15T08:40:08.385Z,17.30
2018-09-15T08:42:37.839Z,17.30
2018-09-15T08:45:07.136Z,17.30
2018-09-15T08:47:36.875Z,17.50
2018-09-15T08:50:06.168Z,17.70
2018-09-15T08:52:35.032Z,17.70
2018-09-15T08:55:03.944Z,17.80
2018-09-15T08:57:33.668Z,17.50
2018-09-15T09:00:02.389Z,17.40
2018-09-15T09:02:31.237Z,17.50
2018-09-15T09:05:00.243Z,17.70
2018-09-15T09:07:32.672Z,17.70
2018-09-15T09:10:12.718Z,17.80
2018-09-15T09:12:41.633Z,17.80
2018-09-15T09:15:10.675Z,17.90
2018-09-15T09:17:39.514Z,17.90
2018-09-15T09:20:08.332Z,17.90
2018-09-15T09:22:37.613Z,17.90
2018-09-15T09:25:14.187Z,17.90
2018-09-15T09:27:48.064Z,18.10
2018-09-15T09:30:21.500Z,18.10
2018-09-15T09:32:51.880Z,18.20
2018-09-15T09:35:25.348Z,18.20
2018-09-15T09:37:56.080Z,18.30
2018-09-15T09:40:25.107Z,18.30
2018-09-15T09:42:55.372Z,18.40
2018-09-15T09:45:24.497Z,18.50
2018-09-15T09:47:54.912Z,18.60
2018-09-15T09:50:25.614Z,18.70
2018-09-15T09:52:55.152Z,18.70
2018-09-15T09:55:25.226Z,18.80
2018-09-15T09:57:55.267Z,18.70
2018-09-15T10:00:29.204Z,18.70
2018-09-15T10:02:58.294Z,18.40
2018-09-15T10:05:27.248Z,18.30
2018-09-15T10:07:56.202Z,18.50
2018-09-15T10:10:25.074Z,18.80
2018-09-15T10:12:54.782Z,18.80
2018-09-15T10:15:29.179Z,18.60
2018-09-15T10:18:06.898Z,18.80
2018-09-15T10:20:51.374Z,18.80
2018-09-15T10:23:36.841Z,18.90
2018-09-15T10:26:22.052Z,19.00
2018-09-15T10:29:00.249Z,19.10
2018-09-15T10:34:40.593Z,19.30
2018-09-15T11:23:25.281Z,19.10
2018-09-15T11:26:30.348Z,19.60
2018-09-15T11:50:26.943Z,19.30
2018-09-15T11:52:56.103Z,19.90
2018-09-15T11:55:24.874Z,19.90
2018-09-15T11:57:53.611Z,19.90
2018-09-15T12:00:25.197Z,20.20
2018-09-15T12:02:55.094Z,20.50
2018-09-15T12:05:33.338Z,20.10
2018-09-15T12:08:08.142Z,19.90
2018-09-15T12:10:37.140Z,20.00
2018-09-15T12:13:06.756Z,20.10
2018-09-15T12:15:35.511Z,20.40
2018-09-15T12:18:04.295Z,20.50
2018-09-15T12:20:33.791Z,20.50
2018-09-15T12:23:02.607Z,20.90
2018-09-15T12:25:31.473Z,21.10
2018-09-15T12:28:00.270Z,21.20
2018-09-15T12:30:28.879Z,21.10
2018-09-15T12:32:57.574Z,20.90
2018-09-15T12:35:26.398Z,20.30
2018-09-15T12:37:55.106Z,19.80
2018-09-15T12:40:23.835Z,19.70
2018-09-15T12:42:52.960Z,19.70
2018-09-15T12:45:21.756Z,19.40
2018-09-15T12:47:52.146Z,19.20
2018-09-15T12:50:21.065Z,19.10
2018-09-15T12:52:49.793Z,19.10
2018-09-15T12:55:18.823Z,19.70
2018-09-15T12:57:48.882Z,19.90
2018-09-15T13:00:18.453Z,20.10
2018-09-15T13:02:47.801Z,20.10
2018-09-15T13:05:16.502Z,20.00
2018-09-15T13:07:45.322Z,20.10
2018-09-15T13:10:14.176Z,20.50
2018-09-15T13:12:42.988Z,20.60
2018-09-15T13:19:57.654Z,20.70
2018-09-15T13:22:26.664Z,20.60
2018-09-15T13:24:55.561Z,20.40
2018-09-15T13:27:24.523Z,20.40
2018-09-15T13:29:54.043Z,20.20
2018-09-15T13:32:23.382Z,20.40
2018-09-15T13:34:52.449Z,20.40
2018-09-15T13:37:24.135Z,20.20
2018-09-15T13:39:53.923Z,20.10
2018-09-15T13:42:23.349Z,20.40
2018-09-15T13:44:52.122Z,20.70
2018-09-15T13:47:21.114Z,20.60
2018-09-15T13:49:49.978Z,20.80
2018-09-15T13:52:18.721Z,21.20
2018-09-15T13:54:47.585Z,21.20
2018-09-15T13:57:18.115Z,21.30
2018-09-15T13:59:48.955Z,21.30
2018-09-15T14:02:17.799Z,21.60
2018-09-15T14:04:46.815Z,21.90
2018-09-15T14:07:16.461Z,21.80
2018-09-15T14:09:45.211Z,21.40
2018-09-15T14:12:15.387Z,21.70
2018-09-15T14:14:45.505Z,21.00
2018-09-15T14:17:15.111Z,21.10
2018-09-15T14:19:44.094Z,21.20
2018-09-15T14:22:13.340Z,20.90
2018-09-15T14:27:27.724Z,21.10
2018-09-15T14:29:56.848Z,20.90
2018-09-15T14:32:28.594Z,20.70
2018-09-15T14:34:58.736Z,20.90
2018-09-15T14:37:27.656Z,20.90
2018-09-15T14:39:57.134Z,21.40
2018-09-15T14:42:30.451Z,21.40
2018-09-15T14:45:01.592Z,21.40
2018-09-15T14:47:30.671Z,21.50
2018-09-15T14:49:59.626Z,21.50
2018-09-15T14:52:28.710Z,21.60
2018-09-15T14:54:57.733Z,21.40
2018-09-15T14:57:26.719Z,21.60
2018-09-15T14:59:57.055Z,21.80
2018-09-15T15:02:34.821Z,21.40
2018-09-15T15:05:03.986Z,20.80
2018-09-15T15:07:49.991Z,21.10
2018-09-15T15:10:19.475Z,21.40
2018-09-15T15:12:49.367Z,21.50
2018-09-15T15:15:20.622Z,21.20
2018-09-15T15:17:49.622Z,21.20
2018-09-15T15:23:14.260Z,21.20
2018-09-15T15:25:43.193Z,21.20
2018-09-15T15:28:12.308Z,21.10
2018-09-15T15:30:41.189Z,21.10
2018-09-15T15:33:10.247Z,21.10
2018-09-15T15:35:46.140Z,21.00
2018-09-15T15:39:17.453Z,20.90
2018-09-15T15:41:50.723Z,20.90
2018-09-15T15:44:23.613Z,20.90
2018-09-15T15:46:56.466Z,20.90
2018-09-15T15:49:26.459Z,20.80
2018-09-15T15:52:01.727Z,20.60
2018-09-15T15:54:30.714Z,20.40
2018-09-15T15:57:10.548Z,20.40
2018-09-15T15:59:41.446Z,20.00
2018-09-15T16:05:23.967Z,19.60
2018-09-15T16:07:53.841Z,19.40
2018-09-15T16:10:26.117Z,19.20
2018-09-15T16:12:57.569Z,19.00
2018-09-15T16:15:28.986Z,18.90
2018-09-15T16:17:57.889Z,18.80
2018-09-15T16:20:45.064Z,18.70
2018-09-15T16:23:14.225Z,18.70
2018-09-15T16:25:43.580Z,18.50
2018-09-15T16:28:13.179Z,18.50
2018-09-15T16:30:41.940Z,18.60
2018-09-15T16:33:10.610Z,18.50
2018-09-15T16:35:39.380Z,18.50
2018-09-15T16:38:33.035Z,18.40
2018-09-15T16:41:35.261Z,18.40
2018-09-15T16:44:04.112Z,18.40
2018-09-15T16:46:32.880Z,18.40
2018-09-15T16:49:02.600Z,18.30
2018-09-15T16:51:31.450Z,18.10
2018-09-15T16:54:00.153Z,18.00
2018-09-15T16:56:28.917Z,18.00
2018-09-15T16:58:57.683Z,17.90
2018-09-15T17:01:26.439Z,17.80
2018-09-15T17:03:55.447Z,17.80
2018-09-15T17:06:24.308Z,17.60
2018-09-15T17:08:54.320Z,17.70
2018-09-15T17:11:23.137Z,17.60
2018-09-15T17:13:52.639Z,17.50
2018-09-15T17:16:21.372Z,17.40
2018-09-15T17:18:50.096Z,17.20
2018-09-15T17:21:18.703Z,17.20
2018-09-15T17:23:47.442Z,17.00
2018-09-15T17:26:16.256Z,16.90
2018-09-15T17:28:44.937Z,16.80
2018-09-15T17:31:13.762Z,16.70
2018-09-15T17:33:42.486Z,16.60
2018-09-15T17:36:24.329Z,16.50
2018-09-15T17:39:01.227Z,16.40
2018-09-15T17:41:36.717Z,16.40
2018-09-15T17:44:06.471Z,16.30
2018-09-15T17:46:35.250Z,16.20
2018-09-15T17:49:04.163Z,16.10
2018-09-15T17:51:33.405Z,16.00
2018-09-15T17:54:03.418Z,16.00
2018-09-15T17:56:32.478Z,15.80
2018-09-15T17:59:01.567Z,15.70
2018-09-15T18:01:30.509Z,15.60
2018-09-15T18:03:59.265Z,15.50
2018-09-15T18:06:28.109Z,15.50
2018-09-15T18:08:57.875Z,15.40
2018-09-15T18:11:27.833Z,15.30
2018-09-15T18:13:56.853Z,15.20
2018-09-15T18:16:26.035Z,15.10
2018-09-15T18:18:55.164Z,15.10
2018-09-15T18:21:24.011Z,15.00
2018-09-15T18:23:53.252Z,14.90
2018-09-15T18:26:22.332Z,14.90
2018-09-15T18:28:51.126Z,14.80
2018-09-15T18:31:20.142Z,14.70
2018-09-15T18:33:49.372Z,14.60
2018-09-15T18:36:18.195Z,14.60
2018-09-15T18:38:47.505Z,14.60
2018-09-15T18:41:16.803Z,14.60
2018-09-15T18:43:46.902Z,14.60
2018-09-15T18:46:17.739Z,14.50
2018-09-15T18:48:47.398Z,14.50
2018-09-15T18:51:17.612Z,14.40
2018-09-15T18:53:46.768Z,14.40
2018-09-15T18:56:16.226Z,14.30
2018-09-15T18:58:45.640Z,14.30
2018-09-15T19:01:17.702Z,14.20
2018-09-15T19:03:49.966Z,14.20
2018-09-15T19:06:21.163Z,14.10
2018-09-15T19:08:50.866Z,14.00
2018-09-15T19:11:39.272Z,14.00
2018-09-15T19:14:18.213Z,13.90
2018-09-15T19:16:49.843Z,14.00
2018-09-15T19:19:24.260Z,13.90
2018-09-15T19:21:56.700Z,13.80
2018-09-15T19:24:28.476Z,13.70
2018-09-15T19:26:59.229Z,13.70
2018-09-15T19:29:29.006Z,13.70
2018-09-15T19:31:59.875Z,13.70
2018-09-15T19:34:29.957Z,13.60
2018-09-15T19:36:59.872Z,13.70
2018-09-15T19:39:29.922Z,13.70
2018-09-15T19:42:00.748Z,13.70
2018-09-15T19:44:30.100Z,13.60
2018-09-15T19:47:00.949Z,13.60
2018-09-15T19:49:32.719Z,13.60
2018-09-15T19:52:10.930Z,13.60
2018-09-15T19:54:40.967Z,13.60
2018-09-15T19:57:15.411Z,13.60
2018-09-15T19:59:48.062Z,13.60
2018-09-15T20:02:21.103Z,13.60
2018-09-15T20:04:52.213Z,13.50
2018-09-15T20:07:29.157Z,13.50
2018-09-15T20:09:59.301Z,13.40
2018-09-15T20:12:28.652Z,13.40
2018-09-15T20:15:00.859Z,13.40
2018-09-15T20:17:30.529Z,13.40
2018-09-15T20:19:58.772Z,13.30
2018-09-15T20:22:29.265Z,13.30
2018-09-15T20:25:06.012Z,13.20
2018-09-15T20:27:36.054Z,13.20
2018-09-15T20:30:06.309Z,13.20
2018-09-15T20:32:35.735Z,13.20
2018-09-15T20:35:06.322Z,13.30
2018-09-15T20:37:35.852Z,13.20
2018-09-15T20:40:10.962Z,13.30
2018-09-15T20:42:42.032Z,13.30
2018-09-15T20:45:11.863Z,13.30
2018-09-15T20:47:42.478Z,13.40
2018-09-15T20:50:13.293Z,13.40
2018-09-15T20:52:44.032Z,13.40
2018-09-15T20:55:13.385Z,13.50
2018-09-15T20:57:45.282Z,13.50
2018-09-15T21:00:15.569Z,13.50
2018-09-15T21:02:46.534Z,13.50
2018-09-15T21:05:18.448Z,13.50
2018-09-15T21:07:54.159Z,13.50
2018-09-15T21:10:24.935Z,13.50
2018-09-15T21:12:55.230Z,13.50
2018-09-15T21:15:26.889Z,13.50
2018-09-15T21:17:59.238Z,13.50
2018-09-15T21:20:28.359Z,13.50
2018-09-15T21:22:58.448Z,13.40
2018-09-15T21:25:27.931Z,13.40
2018-09-15T21:27:59.086Z,13.40
2018-09-15T21:30:28.289Z,13.40
2018-09-15T21:32:58.401Z,13.40
2018-09-15T21:35:27.687Z,13.30
2018-09-15T21:37:58.353Z,13.30
2018-09-15T21:40:27.530Z,13.20
2018-09-15T21:42:57.359Z,13.20
2018-09-15T21:45:29.481Z,13.20
2018-09-15T21:47:58.492Z,13.20
2018-09-15T21:50:29.576Z,13.20
2018-09-15T21:52:59.425Z,13.20
2018-09-15T21:55:28.971Z,13.20
2018-09-15T21:57:58.087Z,13.20
2018-09-15T22:00:28.769Z,13.20
2018-09-15T22:03:06.108Z,13.20
2018-09-15T22:05:35.300Z,13.20
2018-09-15T22:08:07.757Z,13.20
2018-09-15T22:10:36.674Z,13.20
2018-09-15T22:13:08.578Z,13.20
2018-09-15T22:15:37.720Z,13.20
2018-09-15T22:18:07.572Z,13.20
2018-09-15T22:20:37.994Z,13.20
2018-09-15T22:23:06.946Z,13.20
2018-09-15T22:25:36.829Z,13.20
2018-09-15T22:28:07.369Z,13.20
2018-09-15T22:30:36.906Z,13.20
2018-09-15T22:33:08.520Z,13.20
2018-09-15T22:35:40.218Z,13.20
2018-09-15T22:38:10.911Z,13.30
2018-09-15T22:40:40.562Z,13.30
2018-09-15T22:43:10.682Z,13.30
2018-09-15T22:45:39.652Z,13.30
2018-09-15T22:48:09.105Z,13.20
2018-09-15T22:50:40.926Z,13.20
2018-09-15T22:53:13.070Z,13.20
2018-09-15T22:55:42.891Z,13.20
2018-09-15T22:58:11.964Z,13.30
2018-09-15T23:01:12.085Z,13.20
2018-09-15T23:03:42.314Z,13.20
2018-09-15T23:06:43.559Z,13.20
2018-09-15T23:09:13.744Z,13.20
2018-09-15T23:11:45.124Z,13.20
2018-09-15T23:14:14.369Z,13.20
2018-09-15T23:16:43.571Z,13.20
2018-09-15T23:19:13.120Z,13.20
2018-09-15T23:21:43.735Z,13.20
2018-09-15T23:24:14.673Z,13.20
2018-09-15T23:26:47.397Z,13.20
2018-09-15T23:29:16.459Z,13.20
2018-09-15T23:31:46.210Z,13.20
2018-09-15T23:34:16.877Z,13.20
2018-09-15T23:36:46.876Z,13.20
2018-09-15T23:39:16.051Z,13.20
2018-09-15T23:41:47.808Z,13.10
2018-09-15T23:44:23.426Z,13.10
2018-09-15T23:46:52.814Z,13.20
2018-09-15T23:49:24.314Z,13.20
2018-09-15T23:51:54.660Z,13.20
2018-09-15T23:54:25.967Z,13.20
2018-09-15T23:56:55.853Z,13.20
2018-09-15T23:59:25.342Z,13.30
